Time;durP1;ratioP1;P1;durP2;ratioP2;P2;SDS_P1;SDS_P2;PMS_P1;PMS_P2;Temp;Humidity;BMP_temperature;BMP_pressure;BME280_temperature;BME280_humidity;BME280_pressure;Samples;Min_cycle;Max_cycle;Signal;HPM_P1;HPM_P2
2021/10/03 00:01:00;;;;;;;;;;;;;;;21.65;32.10;98695.72;4870447;29;1523;-79
2021/10/03 00:03:26;;;;;;;;;;;;;;;21.67;31.88;98698.94;4870383;29;648;-79
2021/10/03 00:05:52;;;;;;;;;;;;;;;21.72;31.84;98700.47;4870148;29;1899;-79
2021/10/03 00:08:18;;;;;;;;;;;;;;;21.69;31.78;98696.47;4869250;29;900;-79
2021/10/03 00:10:43;;;;;;;;;;;;;;;21.54;32.30;98693.03;4868978;29;1622;-79
2021/10/03 00:13:09;;;;;;;;;;;;;;;22.13;32.11;98691.72;4870161;29;826;-79
2021/10/03 00:15:35;;;;;;;;;;;;;;;22.44;31.45;98695.19;4869333;29;979;-79
2021/10/03 00:18:01;;;;;;;;;;;;;;;22.26;31.03;98689.84;4870096;29;817;-80
2021/10/03 00:20:26;;;;;;;;;;;;;;;22.05;31.32;98690.19;4868907;29;1578;-79
2021/10/03 00:22:52;;;;;;;;;;;;;;;21.84;31.48;98686.50;4869662;29;1028;-79
2021/10/03 00:25:17;;;;;;;;;;;;;;;21.67;32.01;98693.28;4868932;29;1907;-79
2021/10/03 00:27:43;;;;;;;;;;;;;;;21.79;31.71;98701.16;4869858;29;873;-79
2021/10/03 00:30:08;;;;;;;;;;;;;;;21.66;31.81;98702.19;4869542;29;1593;-79
2021/10/03 00:32:34;;;;;;;;;;;;;;;21.70;32.08;98700.88;4869948;29;624;-79
2021/10/03 00:34:59;;;;;;;;;;;;;;;21.62;31.96;98696.59;4869683;29;664;-79
2021/10/03 00:37:25;;;;;;;;;;;;;;;21.70;31.89;98715.06;4869482;29;936;-80
2021/10/03 00:39:50;;;;;;;;;;;;;;;21.65;31.69;98690.03;4869663;29;946;-79
2021/10/03 00:42:16;;;;;;;;;;;;;;;21.67;31.90;98698.94;4869795;29;1574;-80
2021/10/03 00:44:41;;;;;;;;;;;;;;;21.88;32.06;98694.16;4868923;29;659;-79
2021/10/03 00:47:07;;;;;;;;;;;;;;;22.24;31.43;98697.19;4869555;29;1965;-79
2021/10/03 00:49:36;;;;;;;;;;;;;;;22.50;31.06;98689.81;4868703;29;1328;-80
2021/10/03 00:52:02;;;;;;;;;;;;;;;22.09;31.45;98679.59;4868859;29;1546;-79
2021/10/03 00:54:28;;;;;;;;;;;;;;;21.81;31.33;98681.72;4869023;29;1522;-79
2021/10/03 00:56:53;;;;;;;;;;;;;;;21.66;31.59;98694.50;4869568;29;952;-80
2021/10/03 00:59:19;;;;;;;;;;;;;;;21.71;31.86;98685.53;4868717;29;693;-79
2021/10/03 01:01:45;;;;;;;;;;;;;;;21.70;31.81;98692.41;4868338;29;1404;-79
2021/10/03 01:04:11;;;;;;;;;;;;;;;21.57;31.83;98682.91;4869186;29;604;-80
2021/10/03 01:06:36;;;;;;;;;;;;;;;21.77;31.76;98686.63;4868516;29;1899;-80
2021/10/03 01:09:02;;;;;;;;;;;;;;;22.08;31.89;98675.19;4868915;29;903;-80
2021/10/03 01:11:29;;;;;;;;;;;;;;;22.29;31.44;98677.66;4868125;29;1455;-79
2021/10/03 01:13:54;;;;;;;;;;;;;;;22.09;31.23;98673.94;4869035;29;944;-80
2021/10/03 01:16:20;;;;;;;;;;;;;;;21.97;31.19;98671.75;4868817;29;644;-79
2021/10/03 01:18:45;;;;;;;;;;;;;;;21.80;31.57;98668.75;4868875;29;669;-79
2021/10/03 01:21:11;;;;;;;;;;;;;;;21.63;32.04;98675.53;4867976;29;964;-79
2021/10/03 01:23:36;;;;;;;;;;;;;;;21.77;32.02;98666.00;4868412;29;1554;-80
2021/10/03 01:26:01;;;;;;;;;;;;;;;21.72;31.92;98672.97;4868878;29;1990;-80
2021/10/03 01:28:27;;;;;;;;;;;;;;;21.70;31.92;98666.91;4868032;29;1531;-80
2021/10/03 01:30:52;;;;;;;;;;;;;;;21.69;31.97;98662.47;4868206;29;685;-80
2021/10/03 01:33:18;;;;;;;;;;;;;;;21.58;31.87;98670.34;4867919;29;1526;-80
2021/10/03 01:35:44;;;;;;;;;;;;;;;21.90;32.12;98660.50;4868524;29;979;-80
2021/10/03 01:38:11;;;;;;;;;;;;;;;22.27;31.69;98657.41;4867873;29;884;-80
2021/10/03 01:40:37;;;;;;;;;;;;;;;22.41;31.19;98658.41;4868053;29;1515;-79
2021/10/03 01:43:02;;;;;;;;;;;;;;;22.32;30.93;98656.91;4868630;29;644;-79
2021/10/03 01:45:28;;;;;;;;;;;;;;;21.95;31.31;98660.03;4868507;29;1974;-80
2021/10/03 01:48:06;;;;;;;;;;;;;;;21.71;31.47;98647.88;4868572;29;697;-79
2021/10/03 01:50:33;;;;;;;;;;;;;;;21.76;31.85;98656.72;4867979;29;1597;-79
2021/10/03 01:52:59;;;;;;;;;;;;;;;22.08;31.78;98658.19;4868292;29;920;-79
2021/10/03 01:55:24;;;;;;;;;;;;;;;22.33;31.18;98660.59;4868388;29;980;-80
2021/10/03 01:57:49;;;;;;;;;;;;;;;22.39;31.05;98663.72;4868366;29;637;-80
2021/10/03 02:00:15;;;;;;;;;;;;;;;22.06;31.10;98658.59;4868073;29;1613;-79
2021/10/03 02:02:41;;;;;;;;;;;;;;;21.74;31.51;98658.34;4868308;29;647;-80
2021/10/03 02:05:06;;;;;;;;;;;;;;;21.77;31.43;98658.31;4867950;29;887;-79
2021/10/03 02:07:33;;;;;;;;;;;;;;;21.61;31.86;98658.19;4867901;29;1907;-79
2021/10/03 02:09:59;;;;;;;;;;;;;;;21.68;31.90;98655.22;4867802;29;1487;-79
2021/10/03 02:12:25;;;;;;;;;;;;;;;21.71;31.79;98653.53;4868092;29;656;-79
2021/10/03 02:14:50;;;;;;;;;;;;;;;21.70;31.58;98652.75;4867651;29;1123;-79
2021/10/03 02:17:16;;;;;;;;;;;;;;;21.69;31.87;98650.34;4868280;29;696;-80
2021/10/03 02:19:41;;;;;;;;;;;;;;;21.74;31.65;98650.66;4867697;29;940;-79
2021/10/03 02:22:07;;;;;;;;;;;;;;;21.64;31.94;98648.00;4867478;29;1622;-80
2021/10/03 02:24:32;;;;;;;;;;;;;;;21.70;31.54;98647.06;4867899;29;956;-79
2021/10/03 02:26:58;;;;;;;;;;;;;;;21.55;31.67;98645.72;4867829;29;1978;-80
2021/10/03 02:29:23;;;;;;;;;;;;;;;21.62;32.04;98634.28;4867903;29;620;-79
2021/10/03 02:31:49;;;;;;;;;;;;;;;22.01;31.74;98629.94;4867392;29;1597;-79
2021/10/03 02:34:14;;;;;;;;;;;;;;;22.27;30.92;98634.75;4867631;29;1076;-80
2021/10/03 02:36:40;;;;;;;;;;;;;;;22.23;30.96;98628.38;4867774;29;929;-79
2021/10/03 02:39:05;;;;;;;;;;;;;;;22.01;31.06;98632.78;4867604;29;936;-79
2021/10/03 02:41:31;;;;;;;;;;;;;;;21.90;31.12;98637.84;4866794;29;1443;-80
2021/10/03 02:43:56;;;;;;;;;;;;;;;21.71;31.60;98640.22;4867056;29;625;-79
2021/10/03 02:46:22;;;;;;;;;;;;;;;21.71;31.51;98637.38;4866073;29;1968;-79
2021/10/03 02:48:51;;;;;;;;;;;;;;;21.60;31.93;98633.91;4867317;29;1132;-79
2021/10/03 02:51:18;;;;;;;;;;;;;;;21.85;32.01;98625.78;4867020;29;1613;-79
2021/10/03 02:53:43;;;;;;;;;;;;;;;22.22;31.27;98625.94;4867493;29;1007;-79
2021/10/03 02:56:08;;;;;;;;;;;;;;;22.43;30.90;98627.56;4867485;29;673;-79
2021/10/03 02:58:35;;;;;;;;;;;;;;;22.01;31.20;98633.59;4867968;29;637;-79
2021/10/03 03:01:00;;;;;;;;;;;;;;;21.95;31.15;98628.84;4867402;29;700;-79
2021/10/03 03:03:26;;;;;;;;;;;;;;;21.81;31.10;98632.72;4866798;29;1696;-79
2021/10/03 03:05:51;;;;;;;;;;;;;;;21.69;31.66;98622.81;4867109;29;1974;-79
2021/10/03 03:08:16;;;;;;;;;;;;;;;21.72;31.41;98630.47;4867525;29;926;-79
2021/10/03 03:10:42;;;;;;;;;;;;;;;21.82;31.12;98621.00;4867473;29;643;-79
2021/10/03 03:13:07;;;;;;;;;;;;;;;21.94;31.48;98627.25;4867105;29;1554;-79
2021/10/03 03:15:33;;;;;;;;;;;;;;;22.17;31.19;98626.44;4867177;29;1014;-79
2021/10/03 03:17:58;;;;;;;;;;;;;;;22.29;30.97;98629.47;4867185;29;971;-79
2021/10/03 03:20:24;;;;;;;;;;;;;;;22.27;30.82;98629.06;4867048;29;834;-79
2021/10/03 03:22:49;;;;;;;;;;;;;;;21.91;31.13;98633.78;4867046;29;1483;-79
2021/10/03 03:25:15;;;;;;;;;;;;;;;21.83;31.35;98628.25;4866445;29;1981;-79
2021/10/03 03:27:40;;;;;;;;;;;;;;;21.75;31.22;98631.63;4867329;29;669;-79
2021/10/03 03:30:06;;;;;;;;;;;;;;;21.60;31.68;98631.06;4867145;29;680;-79
2021/10/03 03:32:31;;;;;;;;;;;;;;;21.72;31.78;98638.97;4867016;29;980;-79
2021/10/03 03:34:57;;;;;;;;;;;;;;;21.67;31.49;98636.63;4866768;29;1542;-79
2021/10/03 03:37:22;;;;;;;;;;;;;;;21.72;31.60;98633.31;4867524;29;830;-79
2021/10/03 03:39:48;;;;;;;;;;;;;;;22.06;31.57;98630.25;4867221;29;657;-79
2021/10/03 03:42:13;;;;;;;;;;;;;;;22.39;31.04;98630.47;4867162;29;720;-79
2021/10/03 03:44:38;;;;;;;;;;;;;;;22.50;30.60;98635.94;4866667;29;1574;-79
2021/10/03 03:47:04;;;;;;;;;;;;;;;22.04;31.23;98634.75;4866786;29;1895;-79
2021/10/03 03:49:29;;;;;;;;;;;;;;;21.90;31.39;98637.84;4866200;29;994;-79
2021/10/03 03:51:55;;;;;;;;;;;;;;;21.76;31.51;98625.56;4867011;29;851;-79
2021/10/03 03:54:21;;;;;;;;;;;;;;;21.76;31.32;98628.38;4867043;29;684;-79
2021/10/03 03:56:46;;;;;;;;;;;;;;;21.77;31.27;98629.97;4867407;29;1611;-80
2021/10/03 03:59:12;;;;;;;;;;;;;;;21.66;31.73;98626.53;4870524;29;633;-79
2021/10/03 04:01:37;;;;;;;;;;;;;;;21.70;31.48;98630.09;4870057;29;960;-79
2021/10/03 04:04:03;;;;;;;;;;;;;;;22.04;31.75;98634.75;4870090;29;968;-79
2021/10/03 04:06:28;;;;;;;;;;;;;;;22.41;31.04;98647.84;4869855;29;1968;-79
2021/10/03 04:08:54;;;;;;;;;;;;;;;22.24;30.63;98635.63;4870288;29;656;-79
2021/10/03 04:11:19;;;;;;;;;;;;;;;22.00;31.04;98631.97;4870283;29;672;-79
2021/10/03 04:13:45;;;;;;;;;;;;;;;21.87;31.15;98644.41;4870140;29;621;-79
2021/10/03 04:16:10;;;;;;;;;;;;;;;21.59;31.42;98640.78;4868729;29;1507;-79
2021/10/03 04:18:36;;;;;;;;;;;;;;;21.76;31.35;98645.38;4869811;29;1711;-79
2021/10/03 04:21:01;;;;;;;;;;;;;;;21.72;31.48;98649.50;4870010;29;899;-79
2021/10/03 04:23:26;;;;;;;;;;;;;;;21.71;31.30;98654.38;4870056;29;671;-80
2021/10/03 04:25:52;;;;;;;;;;;;;;;21.69;31.39;98656.00;4869286;29;2009;-80
2021/10/03 04:28:17;;;;;;;;;;;;;;;21.68;31.37;98655.22;4870283;29;833;-79
2021/10/03 04:30:43;;;;;;;;;;;;;;;21.99;31.59;98664.41;4869627;29;901;-79
2021/10/03 04:33:08;;;;;;;;;;;;;;;22.29;31.03;98662.69;4869522;29;830;-79
2021/10/03 04:35:34;;;;;;;;;;;;;;;22.60;30.34;98664.09;4869761;29;988;-79
2021/10/03 04:37:59;;;;;;;;;;;;;;;22.11;30.95;98654.50;4869057;29;598;-79
2021/10/03 04:40:25;;;;;;;;;;;;;;;21.97;30.82;98660.41;4869721;29;593;-79
2021/10/03 04:42:51;;;;;;;;;;;;;;;21.71;31.41;98660.03;4869292;29;1216;-78
2021/10/03 04:45:17;;;;;;;;;;;;;;;21.69;31.51;98659.63;4869284;29;1891;-77
2021/10/03 04:47:43;;;;;;;;;;;;;;;21.68;31.56;98660.88;4853180;29;940;-79
2021/10/03 04:50:08;;;;;;;;;;;;;;;21.54;31.61;98663.94;4868914;29;1227;-78
2021/10/03 04:52:34;;;;;;;;;;;;;;;21.62;31.70;98673.94;4868937;29;860;-79
2021/10/03 04:54:59;;;;;;;;;;;;;;;21.67;31.60;98679.09;4869402;29;740;-79
2021/10/03 04:57:25;;;;;;;;;;;;;;;21.68;31.47;98671.41;4853484;29;1168;-79
2021/10/03 04:59:50;;;;;;;;;;;;;;;21.60;31.72;98676.38;4869029;29;837;-79
2021/10/03 05:02:16;;;;;;;;;;;;;;;21.62;31.78;98679.59;4869039;29;928;-79
2021/10/03 05:04:41;;;;;;;;;;;;;;;22.05;31.68;98678.88;4868506;29;1170;-79
2021/10/03 05:07:06;;;;;;;;;;;;;;;22.44;31.02;98678.19;4869182;29;1918;-79
2021/10/03 05:09:33;;;;;;;;;;;;;;;22.38;30.85;98682.72;4868460;29;659;-79
2021/10/03 05:11:58;;;;;;;;;;;;;;;22.01;31.53;98683.78;4869175;29;683;-79
2021/10/03 05:14:24;;;;;;;;;;;;;;;21.83;31.66;98684.91;4868597;29;1112;-79
2021/10/03 05:16:50;;;;;;;;;;;;;;;21.62;31.84;98690.91;4868814;29;1011;-79
2021/10/03 05:19:15;;;;;;;;;;;;;;;21.79;31.50;98683.34;4869164;29;1106;-80
2021/10/03 05:21:40;;;;;;;;;;;;;;;21.66;31.73;98685.19;4869053;29;696;-80
2021/10/03 05:24:06;;;;;;;;;;;;;;;21.77;31.51;98686.63;4869134;29;636;-79
2021/10/03 05:26:31;;;;;;;;;;;;;;;21.66;31.60;98703.00;4868912;29;1907;-79
2021/10/03 05:28:57;;;;;;;;;;;;;;;21.71;32.01;98694.03;4868776;29;1050;-79
2021/10/03 05:31:23;;;;;;;;;;;;;;;22.09;31.77;98690.94;4868665;29;926;-79
2021/10/03 05:33:49;;;;;;;;;;;;;;;22.44;31.30;98697.25;4868116;29;982;-79
2021/10/03 05:36:14;;;;;;;;;;;;;;;22.31;31.10;98695.03;4867702;29;801;-79
2021/10/03 05:38:40;;;;;;;;;;;;;;;22.09;31.06;98696.63;4867978;29;765;-79
2021/10/03 05:41:05;;;;;;;;;;;;;;;21.88;31.32;98702.66;4868869;29;664;-79
2021/10/03 05:43:31;;;;;;;;;;;;;;;21.68;31.73;98699.72;4868318;29;975;-79
2021/10/03 05:45:57;;;;;;;;;;;;;;;22.14;31.86;98704.66;4868290;29;1907;-79
2021/10/03 05:48:22;;;;;;;;;;;;;;;22.41;31.18;98706.59;4868136;29;1241;-79
2021/10/03 05:50:50;;;;;;;;;;;;;;;22.50;30.61;98712.50;4868041;29;1154;-79
2021/10/03 05:53:16;;;;;;;;;;;;;;;22.20;30.44;98708.59;4868554;29;732;-79
2021/10/03 05:55:41;;;;;;;;;;;;;;;21.87;30.90;98723.72;4868401;29;689;-79
2021/10/03 05:58:07;;;;;;;;;;;;;;;21.94;30.95;98715.09;4868214;29;874;-80
2021/10/03 06:00:33;;;;;;;;;;;;;;;21.74;31.24;98712.97;4868108;29;821;-79
2021/10/03 06:02:58;;;;;;;;;;;;;;;21.81;31.16;98710.03;4868186;29;916;-79
2021/10/03 06:09:30;;;;;;;;;;;;;;;21.72;31.47;98706.16;4867961;29;585;-79
2021/10/03 06:11:55;;;;;;;;;;;;;;;21.70;31.37;98709.38;4868116;29;674;-79
2021/10/03 06:14:21;;;;;;;;;;;;;;;21.67;31.67;98715.94;4867590;29;1084;-79
2021/10/03 06:16:48;;;;;;;;;;;;;;;21.71;31.25;98716.69;4867868;29;897;-79
2021/10/03 06:19:13;;;;;;;;;;;;;;;21.74;31.56;98720.66;4867964;29;965;-79
2021/10/03 06:21:41;;;;;;;;;;;;;;;21.78;31.30;98710.88;4867999;29;682;-80
2021/10/03 06:24:07;;;;;;;;;;;;;;;22.06;32.14;98717.31;4868333;29;601;-80
2021/10/03 06:26:32;;;;;;;;;;;;;;;22.27;31.83;98724.66;4867862;29;1973;-79
2021/10/03 06:28:58;;;;;;;;;;;;;;;22.48;31.25;98729.94;4867580;29;898;-79
2021/10/03 06:31:23;;;;;;;;;;;;;;;21.81;32.00;98721.38;4867543;29;982;-79
2021/10/03 06:33:49;;;;;;;;;;;;;;;21.95;31.35;98726.00;4867777;29;989;-80
2021/10/03 06:36:14;;;;;;;;;;;;;;;21.79;31.40;98729.47;4867779;29;665;-80
2021/10/03 06:38:40;;;;;;;;;;;;;;;21.91;31.44;98735.78;4866834;29;866;-79
2021/10/03 06:41:05;;;;;;;;;;;;;;;21.70;32.01;98729.22;4867706;29;593;-79
2021/10/03 06:43:35;;;;;;;;;;;;;;;21.63;31.90;98726.50;4866612;29;949;-79
2021/10/03 06:46:02;;;;;;;;;;;;;;;21.77;31.84;98731.16;4867359;29;1895;-79
2021/10/03 06:48:27;;;;;;;;;;;;;;;21.65;31.86;98735.38;4867637;29;979;-79
2021/10/03 06:50:53;;;;;;;;;;;;;;;21.65;31.73;98738.19;4867695;29;700;-79
2021/10/03 06:53:18;;;;;;;;;;;;;;;21.71;32.11;98739.34;4867591;29;676;-79
2021/10/03 06:55:44;;;;;;;;;;;;;;;21.64;32.06;98732.97;4867303;29;873;-79
2021/10/03 06:58:09;;;;;;;;;;;;;;;21.65;31.86;98735.38;4867186;29;932;-79
2021/10/03 07:00:35;;;;;;;;;;;;;;;21.66;31.83;98730.50;4867403;29;931;-80
2021/10/03 07:03:00;;;;;;;;;;;;;;;21.60;31.91;98733.00;4867620;29;597;-79
2021/10/03 07:05:25;;;;;;;;;;;;;;;21.71;32.18;98733.69;4867357;29;1962;-79
2021/10/03 07:07:51;;;;;;;;;;;;;;;22.04;32.26;98731.91;4867674;29;668;-79
2021/10/03 07:10:16;;;;;;;;;;;;;;;22.29;31.65;98737.19;4867112;29;923;-79
2021/10/03 07:12:42;;;;;;;;;;;;;;;22.19;31.46;98724.00;4867124;29;932;-79
2021/10/03 07:15:07;;;;;;;;;;;;;;;21.97;31.67;98734.09;4867180;29;1127;-80
2021/10/03 07:17:33;;;;;;;;;;;;;;;21.89;31.95;98738.25;4867399;29;668;-80
2021/10/03 07:19:58;;;;;;;;;;;;;;;21.78;32.05;98725.06;4866259;29;760;-79
2021/10/03 07:22:24;;;;;;;;;;;;;;;21.78;31.58;98733.56;4867074;29;998;-79
2021/10/03 07:24:49;;;;;;;;;;;;;;;21.94;31.69;98734.94;4866988;29;902;-79
2021/10/03 07:27:15;;;;;;;;;;;;;;;21.87;31.52;98729.38;4867027;29;1895;-79
2021/10/03 07:29:40;;;;;;;;;;;;;;;21.78;32.05;98739.22;4867336;29;595;-79
2021/10/03 07:32:07;;;;;;;;;;;;;;;21.77;31.93;98740.47;4868987;29;675;-79
2021/10/03 07:34:33;;;;;;;;;;;;;;;21.84;31.62;98740.34;4870913;29;648;-79
2021/10/03 07:36:58;;;;;;;;;;;;;;;21.68;31.82;98745.06;4870597;29;976;-78
2021/10/03 07:39:24;;;;;;;;;;;;;;;21.78;31.59;98744.88;4870621;29;893;-79
2021/10/03 07:41:51;;;;;;;;;;;;;;;21.81;31.52;98749.69;4870179;29;917;-78
2021/10/03 07:44:16;;;;;;;;;;;;;;;22.19;32.13;98758.00;4870729;29;624;-79
2021/10/03 07:46:42;;;;;;;;;;;;;;;22.31;32.10;98748.88;4869446;29;1903;-79
2021/10/03 07:49:07;;;;;;;;;;;;;;;22.40;31.61;98747.53;4870265;29;984;-79
2021/10/03 07:51:33;;;;;;;;;;;;;;;22.11;31.95;98767.84;4870212;29;942;-79
2021/10/03 07:53:58;;;;;;;;;;;;;;;21.90;31.92;98745.50;4869776;29;955;-79
2021/10/03 07:56:23;;;;;;;;;;;;;;;21.88;32.08;98745.16;4870278;29;740;-79
2021/10/03 07:58:49;;;;;;;;;;;;;;;21.90;31.79;98751.19;4870542;29;609;-79
2021/10/03 08:01:16;;;;;;;;;;;;;;;21.87;31.81;98752.06;4869714;29;691;-79
2021/10/03 08:03:41;;;;;;;;;;;;;;;21.71;32.15;98750.66;4870200;29;928;-80
2021/10/03 08:06:07;;;;;;;;;;;;;;;21.84;31.75;98753.69;4869949;29;1911;-79
2021/10/03 08:08:32;;;;;;;;;;;;;;;21.73;31.81;98748.19;4869675;29;1146;-79
2021/10/03 08:10:57;;;;;;;;;;;;;;;21.68;31.92;98739.38;4870130;29;724;-79
2021/10/03 08:13:23;;;;;;;;;;;;;;;22.06;32.54;98748.47;4869974;29;753;-79
2021/10/03 08:15:49;;;;;;;;;;;;;;;22.27;32.25;98745.31;4870116;29;1173;-79
2021/10/03 08:18:14;;;;;;;;;;;;;;;22.42;31.67;98748.69;4868740;29;1083;-79
2021/10/03 08:20:41;;;;;;;;;;;;;;;22.01;31.72;98740.47;4869668;29;907;-79
2021/10/03 08:23:06;;;;;;;;;;;;;;;21.81;31.75;98749.69;4869998;29;980;-79
2021/10/03 08:25:32;;;;;;;;;;;;;;;21.80;31.51;98742.41;4869992;29;1903;-79
2021/10/03 08:27:57;;;;;;;;;;;;;;;21.81;31.21;98746.88;4869892;29;636;-79
2021/10/03 08:30:24;;;;;;;;;;;;;;;21.63;31.49;98742.69;4869928;29;693;-79
2021/10/03 08:32:50;;;;;;;;;;;;;;;21.62;31.48;98741.91;4869611;29;929;-79
2021/10/03 08:35:15;;;;;;;;;;;;;;;21.53;31.41;98739.59;4869106;29;938;-79
2021/10/03 08:37:42;;;;;;;;;;;;;;;21.90;31.88;98745.50;4869764;29;968;-79
2021/10/03 08:40:08;;;;;;;;;;;;;;;22.25;31.04;98750.63;4869745;29;617;-79
2021/10/03 08:42:33;;;;;;;;;;;;;;;22.27;30.60;98747.34;4869654;29;687;-79
2021/10/03 08:44:59;;;;;;;;;;;;;;;22.06;30.87;98754.16;4869136;29;660;-79
2021/10/03 08:47:24;;;;;;;;;;;;;;;21.79;31.14;98746.47;4868409;29;1903;-79
2021/10/03 08:49:54;;;;;;;;;;;;;;;21.58;31.40;98752.47;4868388;29;810;-79
2021/10/03 08:52:20;;;;;;;;;;;;;;;21.64;30.88;98749.97;4868848;29;949;-79
2021/10/03 08:54:45;;;;;;;;;;;;;;;21.58;30.88;98741.16;4869399;29;640;-79
2021/10/03 08:57:11;;;;;;;;;;;;;;;21.91;31.23;98747.09;4869299;29;684;-79
2021/10/03 08:59:37;;;;;;;;;;;;;;;22.36;30.17;98751.22;4869399;29;708;-79
2021/10/03 09:02:03;;;;;;;;;;;;;;;22.25;30.14;98739.28;4868972;29;953;-79
2021/10/03 09:04:30;;;;;;;;;;;;;;;21.87;31.01;98746.38;4868986;29;892;-79
2021/10/03 09:06:59;;;;;;;;;;;;;;;21.95;30.84;98750.69;4869070;29;1911;-79
2021/10/03 09:09:28;;;;;;;;;;;;;;;21.81;31.03;98744.03;4868347;29;957;-79
2021/10/03 09:11:54;;;;;;;;;;;;;;;21.69;30.85;98741.78;4868590;29;1340;-79
2021/10/03 09:14:34;;;;;;;;;;;;;;;21.71;31.04;98739.34;4867665;29;1182;-79
2021/10/03 09:16:59;;;;;;;;;;;;;;;21.70;31.08;98737.72;4869147;29;958;-79
2021/10/03 09:19:25;;;;;;;;;;;;;;;22.01;30.92;98746.13;4868718;29;963;-79
2021/10/03 09:21:52;;;;;;;;;;;;;;;22.25;30.22;98738.47;4868983;29;621;-79
2021/10/03 09:24:19;;;;;;;;;;;;;;;22.53;30.11;98735.09;4868926;29;601;-79
2021/10/03 09:26:53;;;;;;;;;;;;;;;22.62;29.90;98728.88;4868044;29;1982;-79
2021/10/03 09:29:22;;;;;;;;;;;;;;;22.00;31.09;98724.69;4868329;29;689;-79
2021/10/03 09:32:06;;;;;;;;;;;;;;;21.94;30.87;98747.06;4867713;29;833;-79
2021/10/03 09:34:31;;;;;;;;;;;;;;;21.75;31.33;98739.25;4868363;29;920;-79
2021/10/03 09:36:58;;;;;;;;;;;;;;;21.80;31.04;98739.56;4869255;29;684;-79
2021/10/03 09:39:23;;;;;;;;;;;;;;;21.94;30.82;98737.75;4868061;29;710;-79
2021/10/03 09:41:49;;;;;;;;;;;;;;;21.93;31.12;98733.34;4867918;29;609;-79
2021/10/03 09:44:15;;;;;;;;;;;;;;;21.81;31.32;98732.72;4867995;29;689;-79
2021/10/03 09:46:40;;;;;;;;;;;;;;;21.66;31.49;98731.31;4868411;29;1903;-79
2021/10/03 09:49:07;;;;;;;;;;;;;;;21.62;31.34;98730.56;4868146;29;927;-79
2021/10/03 09:51:33;;;;;;;;;;;;;;;21.62;31.24;98724.91;4868447;29;972;-78
2021/10/03 09:53:58;;;;;;;;;;;;;;;21.51;31.21;98724.28;4867089;29;892;-78
2021/10/03 09:56:24;;;;;;;;;;;;;;;21.60;31.11;98721.69;4868316;29;696;-80
2021/10/03 09:58:49;;;;;;;;;;;;;;;21.88;31.41;98725.31;4867764;29;648;-79
2021/10/03 10:01:16;;;;;;;;;;;;;;;22.35;30.61;98731.81;4868055;29;857;-79
2021/10/03 10:03:42;;;;;;;;;;;;;;;22.45;30.07;98730.81;4867551;29;902;-78
2021/10/03 10:06:08;;;;;;;;;;;;;;;22.03;30.70;98727.47;4868158;29;1891;-79
2021/10/03 10:08:33;;;;;;;;;;;;;;;21.79;30.94;98729.47;4868324;29;688;-79
2021/10/03 10:11:08;;;;;;;;;;;;;;;21.64;31.03;98725.28;4868191;29;621;-79
2021/10/03 10:13:34;;;;;;;;;;;;;;;21.55;31.03;98719.34;4867231;29;1409;-79
2021/10/03 10:16:18;;;;;;;;;;;;;;;21.52;30.74;98728.69;4866255;29;1281;-79
2021/10/03 10:18:44;;;;;;;;;;;;;;;21.55;30.76;98719.34;4866152;29;1298;-79
2021/10/03 10:21:19;;;;;;;;;;;;;;;21.68;30.43;98717.53;4865894;29;1186;-79
2021/10/03 10:23:44;;;;;;;;;;;;;;;21.96;30.82;98709.78;4866515;29;1170;-79
2021/10/03 10:26:09;;;;;;;;;;;;;;;22.30;29.79;98703.97;4866122;29;1978;-79
2021/10/03 10:28:35;;;;;;;;;;;;;;;22.21;29.71;98703.72;4866745;29;1141;-79
2021/10/03 10:31:13;;;;;;;;;;;;;;;21.87;30.17;98712.38;4866208;29;1198;-78
2021/10/03 10:33:51;;;;;;;;;;;;;;;21.71;30.23;98698.84;4865210;29;1158;-79
2021/10/03 10:36:16;;;;;;;;;;;;;;;21.63;29.81;98703.84;4864650;29;1072;-79
2021/10/03 10:38:41;;;;;;;;;;;;;;;21.49;30.13;98699.19;4866297;29;1197;-79
2021/10/03 10:41:26;;;;;;;;;;;;;;;21.54;30.02;98700.75;4866046;29;1182;-79
2021/10/03 10:43:51;;;;;;;;;;;;;;;21.77;30.20;98700.78;4866569;29;1201;-79
2021/10/03 10:46:39;;;;;;;;;;;;;;;22.26;29.78;98706.84;4866564;29;1900;-79
2021/10/03 10:49:23;;;;;;;;;;;;;;;22.40;29.41;98702.16;4866418;29;1110;-78
2021/10/03 10:51:57;;;;;;;;;;;;;;;21.95;30.25;98692.00;4865546;29;1032;-79
2021/10/03 10:54:23;;;;;;;;;;;;;;;21.81;30.21;98707.22;4865624;29;1344;-79
2021/10/03 10:56:48;;;;;;;;;;;;;;;21.68;30.38;98700.53;4865661;29;1206;-79
2021/10/03 10:59:14;;;;;;;;;;;;;;;21.75;30.52;98700.41;4865749;29;1332;-79
2021/10/03 11:01:42;;;;;;;;;;;;;;;21.66;30.62;98694.50;4865740;29;1182;-79
2021/10/03 11:04:20;;;;;;;;;;;;;;;21.72;30.77;98695.63;4866262;29;1186;-79
2021/10/03 11:06:48;;;;;;;;;;;;;;;21.69;30.98;98695.66;4864466;29;1899;-79
2021/10/03 11:09:16;;;;;;;;;;;;;;;21.74;31.03;98695.97;4865983;29;1178;-79
2021/10/03 11:11:53;;;;;;;;;;;;;;;22.10;31.07;98693.38;4866295;29;1079;-79
2021/10/03 11:14:20;;;;;;;;;;;;;;;22.47;30.49;98687.84;4881030;29;1198;-79
2021/10/03 11:16:50;;;;;;;;;;;;;;;22.14;30.59;98693.31;4866408;29;1197;-78
2021/10/03 11:19:23;;;;;;;;;;;;;;;21.89;30.87;98692.91;4867029;29;1197;-80
2021/10/03 11:21:49;;;;;;;;;;;;;;;21.80;31.20;98685.75;4866580;29;1063;-80
2021/10/03 11:24:18;;;;;;;;;;;;;;;21.77;31.05;98689.47;4867060;29;912;-79
2021/10/03 11:26:45;;;;;;;;;;;;;;;21.79;31.09;98678.50;4866503;29;1903;-79
2021/10/03 11:29:11;;;;;;;;;;;;;;;21.77;30.86;98686.63;4866482;29;676;-79
2021/10/03 11:31:37;;;;;;;;;;;;;;;21.72;30.98;98687.13;4867199;29;1040;-79
2021/10/03 11:34:03;;;;;;;;;;;;;;;21.88;30.78;98680.00;4867263;29;652;-79
2021/10/03 11:36:28;;;;;;;;;;;;;;;21.75;30.94;98672.06;4866851;29;1089;-79
2021/10/03 11:38:56;;;;;;;;;;;;;;;21.22;32.28;98667.22;4866929;29;918;-79
2021/10/03 11:41:21;;;;;;;;;;;;;;;21.06;32.82;98682.00;4851300;29;968;-79
2021/10/03 11:43:47;;;;;;;;;;;;;;;22.06;31.86;98680.47;4867316;29;629;-79
2021/10/03 11:46:12;;;;;;;;;;;;;;;22.30;32.14;98667.09;4867063;29;1961;-79
2021/10/03 11:48:38;;;;;;;;;;;;;;;22.68;31.08;98678.91;4851239;29;1331;-79
2021/10/03 11:51:03;;;;;;;;;;;;;;;22.12;31.91;98664.59;4866744;29;808;-79
2021/10/03 11:53:32;;;;;;;;;;;;;;;21.97;31.89;98666.06;4866811;29;940;-79
2021/10/03 11:56:07;;;;;;;;;;;;;;;21.82;31.74;98660.66;4866952;29;897;-79
2021/10/03 11:58:36;;;;;;;;;;;;;;;21.82;30.92;98666.31;4867112;29;692;-80
2021/10/03 12:01:01;;;;;;;;;;;;;;;21.74;30.82;98670.47;4866984;29;609;-79
2021/10/03 12:03:29;;;;;;;;;;;;;;;21.61;30.76;98672.34;4866254;29;628;-79
2021/10/03 12:05:55;;;;;;;;;;;;;;;21.68;30.66;98660.88;4865887;29;1986;-80
2021/10/03 12:08:21;;;;;;;;;;;;;;;21.51;30.72;98670.47;4866598;29;938;-80
2021/10/03 12:10:53;;;;;;;;;;;;;;;21.61;30.05;98661.00;4865915;29;851;-79
2021/10/03 12:13:21;;;;;;;;;;;;;;;22.01;30.45;98667.59;4867041;29;661;-79
2021/10/03 12:15:55;;;;;;;;;;;;;;;22.44;30.47;98661.16;4866732;29;1114;-79
2021/10/03 12:18:28;;;;;;;;;;;;;;;22.23;30.96;98667.25;4868605;29;664;-79
2021/10/03 12:20:54;;;;;;;;;;;;;;;22.02;31.07;98663.53;4870386;29;1037;-79
2021/10/03 12:23:20;;;;;;;;;;;;;;;21.27;32.72;98663.91;4869903;29;903;-80
2021/10/03 12:25:47;;;;;;;;;;;;;;;21.51;32.78;98673.31;4869882;29;1907;-79
2021/10/03 12:28:12;;;;;;;;;;;;;;;21.77;31.88;98663.16;4870013;29;630;-79
2021/10/03 12:30:52;;;;;;;;;;;;;;;21.67;31.46;98664.94;4869313;29;728;-79
2021/10/03 12:33:18;;;;;;;;;;;;;;;21.65;31.21;98664.56;4869968;29;716;-79
2021/10/03 12:35:57;;;;;;;;;;;;;;;21.70;31.11;98666.91;4869893;29;930;-79
2021/10/03 12:38:23;;;;;;;;;;;;;;;21.59;30.70;98666.28;4868616;29;904;-79
2021/10/03 12:40:48;;;;;;;;;;;;;;;21.66;31.52;98663.34;4869931;29;704;-80
2021/10/03 12:43:14;;;;;;;;;;;;;;;22.11;30.81;98660.16;4869064;29;636;-79
2021/10/03 12:45:39;;;;;;;;;;;;;;;22.39;30.11;98663.72;4868947;29;1964;-79
2021/10/03 12:48:05;;;;;;;;;;;;;;;22.12;29.87;98666.63;4869627;29;644;-79
2021/10/03 12:50:30;;;;;;;;;;;;;;;21.72;30.51;98661.63;4869032;29;1118;-80
2021/10/03 12:52:55;;;;;;;;;;;;;;;21.78;30.09;98659.91;4869183;29;1166;-80
2021/10/03 12:55:21;;;;;;;;;;;;;;;21.84;29.80;98658.16;4869450;29;936;-79
2021/10/03 12:57:46;;;;;;;;;;;;;;;21.65;30.21;98656.06;4869402;29;652;-79
2021/10/03 13:00:12;;;;;;;;;;;;;;;21.71;30.11;98659.19;4869805;29;665;-79
2021/10/03 13:02:37;;;;;;;;;;;;;;;20.87;32.43;98668.50;4869176;29;1126;-79